createdAt,value
2018-12-20T00:02:22.179Z,101499.38
2018-12-20T00:07:07.084Z,101503.08
2018-12-20T00:11:53.011Z,101510.73
2018-12-20T00:16:39.421Z,101521.95
2018-12-20T00:21:23.639Z,101527.14
2018-12-20T00:26:09.050Z,101529.55
2018-12-20T00:30:53.344Z,101533.59
2018-12-20T00:35:37.425Z,101541.02
2018-12-20T00:40:22.773Z,101531.50
2018-12-20T00:45:07.947Z,101530.91
2018-12-20T00:49:53.189Z,101540.14
2018-12-20T00:54:38.810Z,101536.53
2018-12-20T00:59:23.047Z,101550.52
2018-12-20T01:04:07.931Z,101544.92
2018-12-20T01:08:53.055Z,101552.27
2018-12-20T01:13:38.397Z,101548.86
2018-12-20T01:18:23.674Z,101539.48
2018-12-20T01:23:15.129Z,101542.73
2018-12-20T01:28:00.393Z,101551.02
2018-12-20T01:32:45.901Z,101552.02
2018-12-20T01:37:31.610Z,101542.63
2018-12-20T01:42:16.859Z,101542.59
2018-12-20T01:47:02.061Z,101535.88
2018-12-20T01:51:47.374Z,101539.43
2018-12-20T01:56:31.614Z,101536.67
2018-12-20T02:01:20.058Z,101548.11
2018-12-20T02:06:05.548Z,101543.87
2018-12-20T02:10:49.684Z,101543.67
2018-12-20T02:15:34.929Z,101550.00
2018-12-20T02:20:19.629Z,101562.06
2018-12-20T02:25:05.702Z,101552.36
2018-12-20T02:29:49.876Z,101552.45
2018-12-20T02:34:34.257Z,101565.98
2018-12-20T02:39:18.448Z,101574.62
2018-12-20T02:44:03.932Z,101567.83
2018-12-20T02:48:48.442Z,101563.64
2018-12-20T02:53:32.731Z,101550.27
2018-12-20T02:58:16.994Z,101545.14
2018-12-20T03:03:01.183Z,101546.52
2018-12-20T03:07:47.323Z,101551.44
2018-12-20T03:12:32.960Z,101563.95
2018-12-20T03:17:18.271Z,101561.84
2018-12-20T03:22:02.556Z,101563.34
2018-12-20T03:26:47.027Z,101561.44
2018-12-20T03:31:32.784Z,101569.63
2018-12-20T03:36:17.102Z,101573.83
2018-12-20T03:41:03.507Z,101571.31
2018-12-20T03:45:49.079Z,101570.75
2018-12-20T03:50:33.771Z,101591.45
2018-12-20T03:55:17.881Z,101600.84
2018-12-20T04:00:04.311Z,101597.52
2018-12-20T04:04:50.499Z,101589.22
2018-12-20T04:09:34.915Z,101581.64
2018-12-20T04:14:19.101Z,101589.31
2018-12-20T04:19:04.172Z,101589.67
2018-12-20T04:23:49.723Z,101593.88
2018-12-20T04:28:35.173Z,101597.97
2018-12-20T04:33:21.682Z,101612.56
2018-12-20T04:38:06.008Z,101627.09
2018-12-20T04:42:54.577Z,101631.64
2018-12-20T04:47:39.461Z,101635.83
2018-12-20T04:52:24.718Z,101641.24
2018-12-20T04:57:09.897Z,101648.18
2018-12-20T05:01:55.366Z,101662.88
2018-12-20T05:06:39.785Z,101656.69
2018-12-20T05:11:26.478Z,101665.31
2018-12-20T05:16:11.396Z,101653.30
2018-12-20T05:20:56.156Z,101667.44
2018-12-20T05:25:42.282Z,101673.05
2018-12-20T05:30:28.737Z,101685.79
2018-12-20T05:35:13.550Z,101689.77
2018-12-20T05:39:59.447Z,101677.41
2018-12-20T05:44:47.633Z,101682.32
2018-12-20T05:49:31.110Z,101682.04
2018-12-20T05:54:15.427Z,101692.75
2018-12-20T05:58:59.995Z,101680.87
2018-12-20T06:03:45.547Z,101684.31
2018-12-20T06:08:29.997Z,101681.22
2018-12-20T06:13:19.129Z,101684.37
2018-12-20T06:18:04.769Z,101694.16
2018-12-20T06:22:49.395Z,101685.95
2018-12-20T06:27:34.620Z,101685.72
2018-12-20T06:32:19.996Z,101686.34
2018-12-20T06:37:05.992Z,101687.83
2018-12-20T06:41:51.406Z,101688.88
2018-12-20T06:46:40.996Z,101685.95
2018-12-20T06:51:26.504Z,101674.55
2018-12-20T06:56:11.357Z,101680.83
2018-12-20T07:00:56.837Z,101677.66
2018-12-20T07:05:42.520Z,101676.55
2018-12-20T07:10:27.410Z,101675.38
2018-12-20T07:15:12.650Z,101677.59
2018-12-20T07:19:57.017Z,101678.09
2018-12-20T07:24:41.747Z,101683.34
2018-12-20T07:29:27.279Z,101673.08
2018-12-20T07:34:11.537Z,101681.72
2018-12-20T07:38:57.499Z,101688.20
2018-12-20T07:43:41.903Z,101679.14
2018-12-20T07:48:32.056Z,101675.11
2018-12-20T07:53:15.320Z,101681.27
2018-12-20T07:58:00.574Z,101680.37
2018-12-20T08:02:46.772Z,101692.42
2018-12-20T08:07:32.391Z,101678.88
2018-12-20T08:12:17.138Z,101683.08
2018-12-20T08:17:02.299Z,101684.00
2018-12-20T08:21:47.901Z,101684.50
2018-12-20T08:26:33.354Z,101687.48
2018-12-20T08:31:17.610Z,101672.75
2018-12-20T08:36:02.894Z,101664.91
2018-12-20T08:40:52.372Z,101663.65
2018-12-20T08:45:37.808Z,101664.17
2018-12-20T08:50:22.107Z,101663.47
2018-12-20T08:55:09.074Z,101660.45
2018-12-20T08:59:54.904Z,101665.64
2018-12-20T09:04:40.103Z,101670.95
2018-12-20T09:09:25.637Z,101668.05
2018-12-20T09:14:12.248Z,101664.94
2018-12-20T09:18:58.032Z,101646.28
2018-12-20T09:23:43.877Z,101632.52
2018-12-20T09:28:29.055Z,101622.51
2018-12-20T09:33:14.188Z,101628.16
2018-12-20T09:38:01.050Z,101621.02
2018-12-20T09:42:46.444Z,101608.92
2018-12-20T09:47:37.497Z,101604.52
2018-12-20T09:52:23.577Z,101593.19
2018-12-20T09:57:09.428Z,101591.84
2018-12-20T10:01:54.909Z,101582.52
2018-12-20T10:06:39.268Z,101575.65
2018-12-20T10:11:25.508Z,101553.72
2018-12-20T10:16:10.715Z,101542.78
2018-12-20T10:20:55.004Z,101520.64
2018-12-20T10:25:40.812Z,101513.78
2018-12-20T10:30:26.177Z,101523.48
2018-12-20T10:35:11.407Z,101535.49
2018-12-20T10:39:57.505Z,101536.80
2018-12-20T10:44:42.773Z,101535.50
2018-12-20T10:55:01.837Z,101535.62
2018-12-20T10:59:47.192Z,101551.30
2018-12-20T11:04:37.872Z,101545.37
2018-12-20T11:09:27.534Z,101545.08
2018-12-20T11:14:12.761Z,101527.95
2018-12-20T11:18:57.912Z,101515.76
2018-12-20T11:23:43.210Z,101529.80
2018-12-20T11:28:28.644Z,101511.05
2018-12-20T11:33:14.198Z,101523.02
2018-12-20T11:37:58.820Z,101528.97
2018-12-20T11:42:47.273Z,101529.41
2018-12-20T11:47:32.373Z,101535.61
2018-12-20T11:52:17.484Z,101538.23
2018-12-20T11:57:02.829Z,101539.20
2018-12-20T12:01:51.859Z,101513.03
2018-12-20T12:06:37.119Z,101507.81
2018-12-20T12:11:23.944Z,101508.06
2018-12-20T12:16:09.258Z,101502.16
2018-12-20T12:20:53.392Z,101504.75
2018-12-20T12:25:38.708Z,101513.17
2018-12-20T12:30:24.052Z,101523.08
2018-12-20T12:35:09.103Z,101525.88
2018-12-20T12:39:55.440Z,101515.63
2018-12-20T12:44:40.634Z,101514.56
2018-12-20T12:49:25.900Z,101498.47
2018-12-20T12:54:11.249Z,101503.59
2018-12-20T12:58:56.493Z,101494.66
2018-12-20T13:03:41.157Z,101493.80
2018-12-20T13:08:26.961Z,101490.86
2018-12-20T13:13:11.148Z,101492.91
2018-12-20T13:17:56.461Z,101501.86
2018-12-20T13:22:41.688Z,101498.30
2018-12-20T13:27:25.982Z,101498.80
2018-12-20T13:32:11.389Z,101496.89
2018-12-20T13:36:56.730Z,101483.30
2018-12-20T13:41:42.044Z,101496.41
2018-12-20T13:46:26.237Z,101499.31
2018-12-20T13:51:12.263Z,101498.59
2018-12-20T13:55:57.513Z,101520.14
2018-12-20T14:00:42.156Z,101515.98
2018-12-20T14:05:27.521Z,101504.42
2018-12-20T14:10:11.808Z,101509.53
2018-12-20T14:14:56.716Z,101513.98
2018-12-20T14:19:43.112Z,101517.75
2018-12-20T14:24:28.432Z,101518.34
2018-12-20T14:29:13.992Z,101518.13
2018-12-20T14:33:59.165Z,101518.37
2018-12-20T14:38:43.822Z,101518.05
2018-12-20T14:43:29.784Z,101527.50
2018-12-20T14:48:19.348Z,101530.18
2018-12-20T14:53:07.620Z,101532.98
2018-12-20T14:57:51.797Z,101544.36
2018-12-20T15:02:36.439Z,101558.55
2018-12-20T15:07:21.734Z,101563.62
2018-12-20T15:12:06.020Z,101567.19
2018-12-20T15:16:51.615Z,101564.17
2018-12-20T15:21:36.862Z,101558.97
2018-12-20T15:26:21.424Z,101576.41
2018-12-20T15:31:09.080Z,101580.37
2018-12-20T15:35:54.444Z,101592.91
2018-12-20T15:40:40.666Z,101594.45
2018-12-20T15:45:25.946Z,101603.63
2018-12-20T15:50:12.254Z,101615.70
2018-12-20T15:54:57.901Z,101615.95
2018-12-20T15:59:41.964Z,101618.64
2018-12-20T16:04:27.201Z,101610.57
2018-12-20T16:09:12.660Z,101598.17
2018-12-20T16:14:08.778Z,101589.86
2018-12-20T16:18:54.294Z,101603.27
2018-12-20T16:23:39.597Z,101601.78
2018-12-20T16:28:24.885Z,101604.45
2018-12-20T16:33:10.348Z,101593.91
2018-12-20T16:37:55.730Z,101602.64
2018-12-20T16:42:39.974Z,101597.97
2018-12-20T16:47:25.490Z,101589.50
2018-12-20T16:52:10.968Z,101579.93
2018-12-20T16:56:56.218Z,101590.67
2018-12-20T17:01:41.473Z,101599.09
2018-12-20T17:06:25.818Z,101614.23
2018-12-20T17:11:11.268Z,101603.98
2018-12-20T17:15:56.435Z,101599.44
2018-12-20T17:20:42.988Z,101595.32
2018-12-20T17:25:29.431Z,101592.41
2018-12-20T17:30:14.920Z,101576.66
2018-12-20T17:35:00.058Z,101582.91
2018-12-20T17:39:45.733Z,101593.48
2018-12-20T17:44:30.045Z,101581.94
2018-12-20T17:49:15.877Z,101590.28
2018-12-20T17:54:01.241Z,101593.01
2018-12-20T17:58:45.530Z,101596.44
2018-12-20T18:03:31.682Z,101591.06
2018-12-20T18:08:16.954Z,101591.97
2018-12-20T18:13:01.841Z,101591.84
2018-12-20T18:17:47.459Z,101586.84
2018-12-20T18:22:32.936Z,101579.25
2018-12-20T18:27:18.252Z,101583.09
2018-12-20T18:32:03.578Z,101588.77
2018-12-20T18:36:47.917Z,101590.73
2018-12-20T18:41:33.300Z,101586.75
2018-12-20T18:46:18.553Z,101582.59
2018-12-20T18:51:03.868Z,101577.26
2018-12-20T18:55:48.751Z,101587.39
2018-12-20T19:00:36.025Z,101582.53
2018-12-20T19:05:20.217Z,101580.98
2018-12-20T19:10:08.489Z,101592.19
2018-12-20T19:14:53.850Z,101586.17
2018-12-20T19:19:39.810Z,101581.02
2018-12-20T19:24:24.231Z,101577.73
2018-12-20T19:29:10.733Z,101576.92
2018-12-20T19:33:56.670Z,101597.78
2018-12-20T19:38:45.648Z,101593.37
2018-12-20T19:43:35.507Z,101587.81
2018-12-20T19:48:24.166Z,101587.98
2018-12-20T19:53:09.979Z,101590.16
2018-12-20T19:57:55.904Z,101577.85
2018-12-20T20:02:40.298Z,101577.22
2018-12-20T20:07:26.797Z,101581.16
2018-12-20T20:12:12.556Z,101584.59
2018-12-20T20:16:57.515Z,101586.60
2018-12-20T20:21:44.293Z,101584.50
2018-12-20T20:26:30.970Z,101590.94
2018-12-20T20:31:15.332Z,101581.48
2018-12-20T20:36:02.041Z,101593.36
2018-12-20T20:40:46.972Z,101590.59
2018-12-20T20:45:31.913Z,101585.58
2018-12-20T20:50:22.640Z,101593.06
2018-12-20T20:55:08.486Z,101597.63
2018-12-20T20:59:54.890Z,101589.55
2018-12-20T21:04:39.569Z,101576.82
2018-12-20T21:09:25.295Z,101569.97
2018-12-20T21:14:09.533Z,101570.14
2018-12-20T21:18:56.068Z,101570.84
2018-12-20T21:23:41.548Z,101565.03
2018-12-20T21:28:27.034Z,101568.57
2018-12-20T21:33:11.939Z,101565.77
2018-12-20T21:37:57.664Z,101557.00
2018-12-20T21:42:42.002Z,101565.41
2018-12-20T21:47:28.318Z,101559.35
2018-12-20T21:52:14.456Z,101559.08
2018-12-20T21:57:00.010Z,101553.91
2018-12-20T22:01:44.336Z,101543.15
2018-12-20T22:06:30.298Z,101552.70
2018-12-20T22:11:15.597Z,101563.27
2018-12-20T22:16:00.615Z,101551.54
2018-12-20T22:20:47.370Z,101538.81
2018-12-20T22:25:32.301Z,101545.63
2018-12-20T22:30:21.596Z,101549.89
2018-12-20T22:35:06.856Z,101545.11
2018-12-20T22:39:57.052Z,101548.20
2018-12-20T22:44:41.650Z,101542.91
2018-12-20T22:49:27.271Z,101541.95
2018-12-20T22:54:13.126Z,101533.77
2018-12-20T22:58:58.615Z,101541.70
2018-12-20T23:03:42.912Z,101556.01
2018-12-20T23:08:28.712Z,101561.80
2018-12-20T23:13:14.389Z,101555.09
2018-12-20T23:18:02.172Z,101561.05
2018-12-20T23:22:47.901Z,101555.63
2018-12-20T23:27:32.112Z,101566.16
2018-12-20T23:32:18.668Z,101556.98
2018-12-20T23:37:02.907Z,101548.43
2018-12-20T23:41:51.667Z,101543.88
2018-12-20T23:46:37.718Z,101550.94
2018-12-20T23:51:24.104Z,101545.92
2018-12-20T23:56:08.573Z,101553.34
